LMML/MLA METAR and TAF weather

Enter ICAO airport designator
Station Type Date Time Source
LMML METAR 2019/06/19 07:45 UTC NOAA

LMML 190745Z 16003KT 110V190 9999 FEW012 28/18 Q1014 NOSIG


Station Type Date Time Source
LMML Decoded METAR 2019/06/19 07:45 UTC NOAA

Luqa, Malta (LMML) 35-51N 014-29E 91M
Jun 19, 2019 - 03:45 AM EDT / 2019.06.19 0745 UTC
Wind: from the SSE (160 degrees) at 3 MPH (3 KT) (direction variable):0
Visibility: greater than 7 mile(s):0
Sky conditions: mostly clear
Temperature: 82 F (28 C)
Dew Point: 64 F (18 C)
Relative Humidity: 54%
Pressure (altimeter): 29.94 in. Hg (1014 hPa)
ob: LMML 190745Z 16003KT 110V190 9999 FEW012 28/18 Q1014 NOSIG
cycle: 8

Station Type Date Time Source
LMML TAF 2019/06/19 06:43 UTC NOAA

TAF LMML 190500Z 1906/2006 27008KT CAVOK PROB30
TEMPO 2002/2005 8000

Example: see airport list